This is the latest recevied weather packets stored in our database for station/object LRBM. If no packets are shown the sender has not sent any weather packets the latest 10 day(s).
| Time | Temp. | Humidity | Pressure | Rain* | Wind** | Luminosity | Snow |
|---|---|---|---|---|---|---|---|
| 1788641326 | 16.11° C | 77% | 1019 hPa | - | - | - | - |
| 1788640415 | 16.11° C | 77% | 1019 hPa | - | - | - | - |
| 1788639515 | 17.22° C | 73% | 1018 hPa | - | - | - | - |
| 1788637785 | 16.11° C | 83% | 1018 hPa | - | - | - | - |
| 1788636816 | 16.11° C | 83% | 1018 hPa | - | - | - | - |
| 1788635944 | 17.78° C | 73% | 1018 hPa | - | - | - | - |
| 1788635016 | 17.78° C | 73% | 1018 hPa | - | - | - | - |
| 1788634113 | 18.89° C | 68% | 1017 hPa | - | - | - | - |
| 1788633220 | 18.89° C | 68% | 1017 hPa | - | - | - | - |
| 1788632312 | 20° C | 64% | 1017 hPa | - | - | - | - |
| 1788631412 | 20° C | 64% | 1017 hPa | - | - | - | - |
| 1788630512 | 18.89° C | 73% | 1017 hPa | - | - | - | - |
| 1788629615 | 18.89° C | 73% | 1017 hPa | - | - | - | - |
| 1788628723 | 21.11° C | 64% | 1017 hPa | - | - | - | - |
| 1788627816 | 21.11° C | 64% | 1017 hPa | - | - | - | - |
| 1788626017 | 21.11° C | 64% | 1017 hPa | - | - | - | - |
| 1788625113 | 22.22° C | 61% | 1016 hPa | - | - | - | - |
| 1788623329 | 22.78° C | 57% | 1016 hPa | - | - | - | - |
| 1788621516 | 23.89° C | 54% | 1016 hPa | - | - | - | - |
| 1788620616 | 23.89° C | 54% | 1016 hPa | - | - | - | - |
| 1788618815 | 23.89° C | 54% | 1016 hPa | - | - | - | - |
| 1788617913 | 25° C | 51% | 1016 hPa | - | - | - | - |
| 1788617012 | 25° C | 51% | 1016 hPa | - | - | - | - |
| 1788616192 | 22.78° C | 57% | 1016 hPa | - | - | - | - |
| 1788615216 | 22.78° C | 57% | 1016 hPa | - | - | - | - |
* Rain since midnight (hover to see other rain measurements)
** Current wind speed in m/s (hover to see current wind gust speed)